sensor_id;sensor_type;location;lat;lon;timestamp;temperature;humidity
1958;DHT22;979;51.076;13.748;2022-09-14T00:00:16;18.60;80.80
1958;DHT22;979;51.076;13.748;2022-09-14T00:02:44;18.60;80.90
1958;DHT22;979;51.076;13.748;2022-09-14T00:05:16;18.60;80.90
1958;DHT22;979;51.076;13.748;2022-09-14T00:07:46;18.60;81.10
1958;DHT22;979;51.076;13.748;2022-09-14T00:10:14;18.60;81.10
1958;DHT22;979;51.076;13.748;2022-09-14T00:12:43;18.60;81.20
1958;DHT22;979;51.076;13.748;2022-09-14T00:15:11;18.60;81.20
1958;DHT22;979;51.076;13.748;2022-09-14T00:17:39;18.50;81.10
1958;DHT22;979;51.076;13.748;2022-09-14T00:20:11;18.50;81.30
1958;DHT22;979;51.076;13.748;2022-09-14T00:22:39;18.50;81.50
1958;DHT22;979;51.076;13.748;2022-09-14T00:25:09;18.50;81.40
1958;DHT22;979;51.076;13.748;2022-09-14T00:27:37;18.50;81.60
1958;DHT22;979;51.076;13.748;2022-09-14T00:30:33;18.50;81.50
1958;DHT22;979;51.076;13.748;2022-09-14T00:33:01;18.50;81.60
1958;DHT22;979;51.076;13.748;2022-09-14T00:35:29;18.50;81.40
1958;DHT22;979;51.076;13.748;2022-09-14T00:37:58;18.50;81.50
1958;DHT22;979;51.076;13.748;2022-09-14T00:40:29;18.50;81.70
1958;DHT22;979;51.076;13.748;2022-09-14T00:42:57;18.50;81.90
1958;DHT22;979;51.076;13.748;2022-09-14T00:45:26;18.50;82.10
1958;DHT22;979;51.076;13.748;2022-09-14T00:47:55;18.60;82.10
1958;DHT22;979;51.076;13.748;2022-09-14T00:50:23;18.60;82.00
1958;DHT22;979;51.076;13.748;2022-09-14T00:52:54;18.70;82.20
1958;DHT22;979;51.076;13.748;2022-09-14T00:55:23;18.80;82.30
1958;DHT22;979;51.076;13.748;2022-09-14T00:57:53;18.80;82.30
1958;DHT22;979;51.076;13.748;2022-09-14T01:00:24;18.90;82.40
1958;DHT22;979;51.076;13.748;2022-09-14T01:02:52;18.90;82.20
1958;DHT22;979;51.076;13.748;2022-09-14T01:05:25;18.90;82.10
1958;DHT22;979;51.076;13.748;2022-09-14T01:08:20;18.90;82.20
1958;DHT22;979;51.076;13.748;2022-09-14T01:11:03;18.90;82.10
1958;DHT22;979;51.076;13.748;2022-09-14T01:13:40;19.00;82.10
1958;DHT22;979;51.076;13.748;2022-09-14T01:16:17;19.10;82.20
1958;DHT22;979;51.076;13.748;2022-09-14T01:18:53;19.10;82.10
1958;DHT22;979;51.076;13.748;2022-09-14T01:21:27;19.10;82.00
1958;DHT22;979;51.076;13.748;2022-09-14T01:24:05;19.10;82.10
1958;DHT22;979;51.076;13.748;2022-09-14T01:26:51;19.10;82.10
1958;DHT22;979;51.076;13.748;2022-09-14T01:29:29;19.20;82.00
1958;DHT22;979;51.076;13.748;2022-09-14T01:32:02;19.10;81.90
1958;DHT22;979;51.076;13.748;2022-09-14T01:34:36;19.10;82.00
1958;DHT22;979;51.076;13.748;2022-09-14T01:37:09;19.10;81.90
1958;DHT22;979;51.076;13.748;2022-09-14T01:39:41;19.10;82.00
1958;DHT22;979;51.076;13.748;2022-09-14T01:42:11;19.10;82.00
1958;DHT22;979;51.076;13.748;2022-09-14T01:44:43;19.10;82.20
1958;DHT22;979;51.076;13.748;2022-09-14T01:47:15;19.20;82.10
1958;DHT22;979;51.076;13.748;2022-09-14T01:49:49;19.20;82.10
1958;DHT22;979;51.076;13.748;2022-09-14T01:52:21;19.20;82.10
1958;DHT22;979;51.076;13.748;2022-09-14T01:54:59;19.30;82.30
1958;DHT22;979;51.076;13.748;2022-09-14T01:57:31;19.20;82.00
1958;DHT22;979;51.076;13.748;2022-09-14T02:00:07;19.20;81.90
1958;DHT22;979;51.076;13.748;2022-09-14T02:02:41;19.20;82.10
1958;DHT22;979;51.076;13.748;2022-09-14T02:05:17;19.20;82.00
1958;DHT22;979;51.076;13.748;2022-09-14T02:07:47;19.20;81.90
1958;DHT22;979;51.076;13.748;2022-09-14T02:10:16;19.20;82.10
1958;DHT22;979;51.076;13.748;2022-09-14T02:12:47;19.10;82.00
1958;DHT22;979;51.076;13.748;2022-09-14T02:15:18;19.10;82.30
1958;DHT22;979;51.076;13.748;2022-09-14T02:17:49;19.10;82.20
1958;DHT22;979;51.076;13.748;2022-09-14T02:20:22;19.10;82.40
1958;DHT22;979;51.076;13.748;2022-09-14T02:22:51;19.10;82.20
1958;DHT22;979;51.076;13.748;2022-09-14T02:25:22;19.10;82.40
1958;DHT22;979;51.076;13.748;2022-09-14T02:27:52;19.10;82.30
1958;DHT22;979;51.076;13.748;2022-09-14T02:30:22;19.10;82.50
1958;DHT22;979;51.076;13.748;2022-09-14T02:32:59;19.20;82.50
1958;DHT22;979;51.076;13.748;2022-09-14T02:35:35;19.10;82.20
1958;DHT22;979;51.076;13.748;2022-09-14T02:38:09;19.10;82.20
1958;DHT22;979;51.076;13.748;2022-09-14T02:40:45;19.10;82.20
1958;DHT22;979;51.076;13.748;2022-09-14T02:43:25;19.10;82.20
1958;DHT22;979;51.076;13.748;2022-09-14T02:46:02;19.10;82.40
1958;DHT22;979;51.076;13.748;2022-09-14T02:48:39;18.90;82.20
1958;DHT22;979;51.076;13.748;2022-09-14T02:51:13;19.00;82.40
1958;DHT22;979;51.076;13.748;2022-09-14T02:53:47;19.00;82.50
1958;DHT22;979;51.076;13.748;2022-09-14T02:56:19;19.00;82.90
1958;DHT22;979;51.076;13.748;2022-09-14T02:58:48;19.10;82.70
1958;DHT22;979;51.076;13.748;2022-09-14T03:01:19;19.00;82.60
1958;DHT22;979;51.076;13.748;2022-09-14T03:03:48;19.10;82.70
1958;DHT22;979;51.076;13.748;2022-09-14T03:06:20;18.90;82.50
1958;DHT22;979;51.076;13.748;2022-09-14T03:08:50;19.10;82.90
1958;DHT22;979;51.076;13.748;2022-09-14T03:11:19;19.10;82.90
1958;DHT22;979;51.076;13.748;2022-09-14T03:13:47;19.10;82.90
1958;DHT22;979;51.076;13.748;2022-09-14T03:16:18;19.10;83.00
1958;DHT22;979;51.076;13.748;2022-09-14T03:18:47;19.10;82.60
1958;DHT22;979;51.076;13.748;2022-09-14T03:21:16;19.10;82.90
1958;DHT22;979;51.076;13.748;2022-09-14T03:23:47;19.10;82.70
1958;DHT22;979;51.076;13.748;2022-09-14T03:26:17;19.10;82.70
1958;DHT22;979;51.076;13.748;2022-09-14T03:28:49;19.10;82.60
1958;DHT22;979;51.076;13.748;2022-09-14T03:31:19;19.10;82.50
1958;DHT22;979;51.076;13.748;2022-09-14T03:33:51;19.10;82.60
1958;DHT22;979;51.076;13.748;2022-09-14T03:36:21;19.10;82.90
1958;DHT22;979;51.076;13.748;2022-09-14T03:38:51;19.10;82.60
1958;DHT22;979;51.076;13.748;2022-09-14T03:41:22;19.10;82.60
1958;DHT22;979;51.076;13.748;2022-09-14T03:43:50;19.30;82.90
1958;DHT22;979;51.076;13.748;2022-09-14T03:46:21;19.10;82.70
1958;DHT22;979;51.076;13.748;2022-09-14T03:48:53;19.20;83.00
1958;DHT22;979;51.076;13.748;2022-09-14T03:51:22;19.20;82.70
1958;DHT22;979;51.076;13.748;2022-09-14T03:53:51;19.30;82.90
1958;DHT22;979;51.076;13.748;2022-09-14T03:56:25;19.30;83.30
1958;DHT22;979;51.076;13.748;2022-09-14T03:58:56;19.20;83.00
1958;DHT22;979;51.076;13.748;2022-09-14T04:01:28;19.30;83.00
1958;DHT22;979;51.076;13.748;2022-09-14T04:04:01;19.20;82.80
1958;DHT22;979;51.076;13.748;2022-09-14T04:06:29;19.30;82.90
1958;DHT22;979;51.076;13.748;2022-09-14T04:08:58;19.20;82.90
1958;DHT22;979;51.076;13.748;2022-09-14T04:11:26;19.30;82.90
1958;DHT22;979;51.076;13.748;2022-09-14T04:14:00;19.30;82.90
1958;DHT22;979;51.076;13.748;2022-09-14T04:16:29;19.30;82.60
1958;DHT22;979;51.076;13.748;2022-09-14T04:18:58;19.30;82.90
1958;DHT22;979;51.076;13.748;2022-09-14T04:21:26;19.30;83.60
1958;DHT22;979;51.076;13.748;2022-09-14T04:23:58;19.30;82.80
1958;DHT22;979;51.076;13.748;2022-09-14T04:26:41;19.30;82.80
1958;DHT22;979;51.076;13.748;2022-09-14T04:29:10;19.40;82.90
1958;DHT22;979;51.076;13.748;2022-09-14T04:31:42;19.30;82.70
1958;DHT22;979;51.076;13.748;2022-09-14T04:34:11;19.30;83.00
1958;DHT22;979;51.076;13.748;2022-09-14T04:36:42;19.40;82.80
1958;DHT22;979;51.076;13.748;2022-09-14T04:39:11;19.40;82.80
1958;DHT22;979;51.076;13.748;2022-09-14T04:41:43;19.40;82.70
1958;DHT22;979;51.076;13.748;2022-09-14T04:44:11;19.40;82.80
1958;DHT22;979;51.076;13.748;2022-09-14T04:46:44;19.40;82.80
1958;DHT22;979;51.076;13.748;2022-09-14T04:49:13;19.40;83.50
1958;DHT22;979;51.076;13.748;2022-09-14T04:51:42;19.40;82.50
1958;DHT22;979;51.076;13.748;2022-09-14T04:54:13;19.40;82.60
1958;DHT22;979;51.076;13.748;2022-09-14T04:56:42;19.40;82.40
1958;DHT22;979;51.076;13.748;2022-09-14T04:59:10;19.40;82.50
1958;DHT22;979;51.076;13.748;2022-09-14T05:01:45;19.40;82.60
1958;DHT22;979;51.076;13.748;2022-09-14T05:04:15;19.70;82.70
1958;DHT22;979;51.076;13.748;2022-09-14T05:06:44;19.50;82.40
1958;DHT22;979;51.076;13.748;2022-09-14T05:09:14;19.50;82.60
1958;DHT22;979;51.076;13.748;2022-09-14T05:11:49;19.60;82.40
1958;DHT22;979;51.076;13.748;2022-09-14T05:14:25;19.60;83.10
1958;DHT22;979;51.076;13.748;2022-09-14T05:16:55;19.50;82.30
1958;DHT22;979;51.076;13.748;2022-09-14T05:19:27;19.60;82.50
1958;DHT22;979;51.076;13.748;2022-09-14T05:21:55;19.60;82.60
1958;DHT22;979;51.076;13.748;2022-09-14T05:24:24;19.80;82.90
1958;DHT22;979;51.076;13.748;2022-09-14T05:26:53;19.50;82.50
1958;DHT22;979;51.076;13.748;2022-09-14T05:29:26;19.60;82.70
1958;DHT22;979;51.076;13.748;2022-09-14T05:31:59;19.60;82.60
1958;DHT22;979;51.076;13.748;2022-09-14T05:34:27;19.70;83.00
1958;DHT22;979;51.076;13.748;2022-09-14T05:36:55;19.70;82.70
1958;DHT22;979;51.076;13.748;2022-09-14T05:39:24;19.70;82.60
1958;DHT22;979;51.076;13.748;2022-09-14T05:41:52;19.70;82.80
1958;DHT22;979;51.076;13.748;2022-09-14T05:44:20;19.70;82.50
1958;DHT22;979;51.076;13.748;2022-09-14T05:46:48;19.80;82.70
1958;DHT22;979;51.076;13.748;2022-09-14T05:49:19;19.80;82.80
1958;DHT22;979;51.076;13.748;2022-09-14T05:51:49;19.80;82.80
1958;DHT22;979;51.076;13.748;2022-09-14T05:54:19;19.80;82.40
1958;DHT22;979;51.076;13.748;2022-09-14T05:56:47;19.80;82.40
1958;DHT22;979;51.076;13.748;2022-09-14T05:59:19;19.90;82.50
1958;DHT22;979;51.076;13.748;2022-09-14T06:01:47;19.90;82.60
1958;DHT22;979;51.076;13.748;2022-09-14T06:04:16;20.10;82.80
1958;DHT22;979;51.076;13.748;2022-09-14T06:06:46;19.90;82.30
1958;DHT22;979;51.076;13.748;2022-09-14T06:09:33;20.00;82.20
1958;DHT22;979;51.076;13.748;2022-09-14T06:12:01;20.00;82.20
1958;DHT22;979;51.076;13.748;2022-09-14T06:14:32;20.00;82.10
1958;DHT22;979;51.076;13.748;2022-09-14T06:17:02;20.00;82.10
1958;DHT22;979;51.076;13.748;2022-09-14T06:19:31;20.00;82.00
1958;DHT22;979;51.076;13.748;2022-09-14T06:22:01;20.10;82.30
1958;DHT22;979;51.076;13.748;2022-09-14T06:24:32;20.10;81.90
1958;DHT22;979;51.076;13.748;2022-09-14T06:27:01;20.10;82.00
1958;DHT22;979;51.076;13.748;2022-09-14T06:29:32;20.20;82.10
1958;DHT22;979;51.076;13.748;2022-09-14T06:32:04;20.20;81.80
1958;DHT22;979;51.076;13.748;2022-09-14T06:34:35;20.20;81.80
1958;DHT22;979;51.076;13.748;2022-09-14T06:37:05;20.20;81.90
1958;DHT22;979;51.076;13.748;2022-09-14T06:39:36;20.20;82.10
1958;DHT22;979;51.076;13.748;2022-09-14T06:42:06;20.20;81.90
1958;DHT22;979;51.076;13.748;2022-09-14T06:44:37;20.20;81.90
1958;DHT22;979;51.076;13.748;2022-09-14T06:47:06;20.30;82.00
1958;DHT22;979;51.076;13.748;2022-09-14T06:49:34;20.30;82.10
1958;DHT22;979;51.076;13.748;2022-09-14T06:52:05;20.30;82.00
1958;DHT22;979;51.076;13.748;2022-09-14T06:54:34;20.30;82.70
1958;DHT22;979;51.076;13.748;2022-09-14T06:57:02;20.30;82.10
1958;DHT22;979;51.076;13.748;2022-09-14T06:59:30;20.30;82.10
1958;DHT22;979;51.076;13.748;2022-09-14T07:01:58;20.30;82.10
1958;DHT22;979;51.076;13.748;2022-09-14T07:04:41;20.30;82.40
1958;DHT22;979;51.076;13.748;2022-09-14T07:07:13;20.30;82.20
1958;DHT22;979;51.076;13.748;2022-09-14T07:09:44;20.30;82.10
1958;DHT22;979;51.076;13.748;2022-09-14T07:12:13;20.30;82.10
1958;DHT22;979;51.076;13.748;2022-09-14T07:14:43;20.40;82.10
1958;DHT22;979;51.076;13.748;2022-09-14T07:17:11;20.40;82.00
1958;DHT22;979;51.076;13.748;2022-09-14T07:19:42;20.40;82.10
1958;DHT22;979;51.076;13.748;2022-09-14T07:22:12;20.40;81.90
1958;DHT22;979;51.076;13.748;2022-09-14T07:24:41;20.40;81.90
1958;DHT22;979;51.076;13.748;2022-09-14T07:27:09;20.50;81.90
1958;DHT22;979;51.076;13.748;2022-09-14T07:29:37;20.50;81.80
1958;DHT22;979;51.076;13.748;2022-09-14T07:32:05;20.60;82.40
1958;DHT22;979;51.076;13.748;2022-09-14T07:34:33;20.50;82.00
1958;DHT22;979;51.076;13.748;2022-09-14T07:37:04;20.60;82.20
1958;DHT22;979;51.076;13.748;2022-09-14T07:39:33;20.60;82.20
1958;DHT22;979;51.076;13.748;2022-09-14T07:42:02;20.60;82.30
1958;DHT22;979;51.076;13.748;2022-09-14T07:44:33;20.60;82.80
1958;DHT22;979;51.076;13.748;2022-09-14T07:47:01;20.60;82.80
1958;DHT22;979;51.076;13.748;2022-09-14T07:49:30;20.60;82.60
1958;DHT22;979;51.076;13.748;2022-09-14T07:51:58;20.60;82.60
1958;DHT22;979;51.076;13.748;2022-09-14T07:54:29;20.60;82.50
1958;DHT22;979;51.076;13.748;2022-09-14T07:57:05;20.70;82.40
1958;DHT22;979;51.076;13.748;2022-09-14T07:59:36;20.70;82.70
1958;DHT22;979;51.076;13.748;2022-09-14T08:02:06;20.70;82.60
1958;DHT22;979;51.076;13.748;2022-09-14T08:04:35;20.80;82.60
1958;DHT22;979;51.076;13.748;2022-09-14T08:07:05;20.80;82.50
1958;DHT22;979;51.076;13.748;2022-09-14T08:09:33;20.80;82.70
1958;DHT22;979;51.076;13.748;2022-09-14T08:12:08;20.80;83.00
1958;DHT22;979;51.076;13.748;2022-09-14T08:14:37;20.80;82.80
1958;DHT22;979;51.076;13.748;2022-09-14T08:17:05;20.90;82.90
1958;DHT22;979;51.076;13.748;2022-09-14T08:19:35;20.90;82.80
1958;DHT22;979;51.076;13.748;2022-09-14T08:22:03;21.00;82.60
1958;DHT22;979;51.076;13.748;2022-09-14T08:24:32;21.00;82.60
1958;DHT22;979;51.076;13.748;2022-09-14T08:27:03;21.00;82.60
1958;DHT22;979;51.076;13.748;2022-09-14T08:29:33;20.90;82.10
1958;DHT22;979;51.076;13.748;2022-09-14T08:32:04;21.10;82.30
1958;DHT22;979;51.076;13.748;2022-09-14T08:34:35;21.10;82.20
1958;DHT22;979;51.076;13.748;2022-09-14T08:37:04;20.80;81.70
1958;DHT22;979;51.076;13.748;2022-09-14T08:39:37;21.10;82.40
1958;DHT22;979;51.076;13.748;2022-09-14T08:42:13;21.10;82.30
1958;DHT22;979;51.076;13.748;2022-09-14T08:44:48;21.10;82.30
1958;DHT22;979;51.076;13.748;2022-09-14T08:47:27;21.10;82.30
1958;DHT22;979;51.076;13.748;2022-09-14T08:50:04;21.10;82.50
1958;DHT22;979;51.076;13.748;2022-09-14T08:52:40;20.90;82.60
1958;DHT22;979;51.076;13.748;2022-09-14T08:55:32;21.10;83.10
1958;DHT22;979;51.076;13.748;2022-09-14T08:58:16;21.10;83.00
1958;DHT22;979;51.076;13.748;2022-09-14T09:00:51;21.20;82.90
1958;DHT22;979;51.076;13.748;2022-09-14T09:06:55;21.20;82.90
1958;DHT22;979;51.076;13.748;2022-09-14T09:09:36;21.50;83.20
1958;DHT22;979;51.076;13.748;2022-09-14T09:12:07;21.20;83.10
1958;DHT22;979;51.076;13.748;2022-09-14T09:14:45;21.60;83.20
1958;DHT22;979;51.076;13.748;2022-09-14T09:17:19;21.40;82.90
1958;DHT22;979;51.076;13.748;2022-09-14T09:19:57;21.40;82.80
1958;DHT22;979;51.076;13.748;2022-09-14T09:22:43;21.40;82.80
1958;DHT22;979;51.076;13.748;2022-09-14T09:25:25;21.40;83.20
1958;DHT22;979;51.076;13.748;2022-09-14T09:28:01;21.30;83.20
1958;DHT22;979;51.076;13.748;2022-09-14T09:30:29;21.30;83.50
1958;DHT22;979;51.076;13.748;2022-09-14T09:33:01;21.30;83.50
1958;DHT22;979;51.076;13.748;2022-09-14T09:36:11;21.30;84.30
1958;DHT22;979;51.076;13.748;2022-09-14T09:39:00;21.30;84.20
1958;DHT22;979;51.076;13.748;2022-09-14T09:41:40;21.40;84.20
1958;DHT22;979;51.076;13.748;2022-09-14T09:44:26;21.80;84.30
1958;DHT22;979;51.076;13.748;2022-09-14T09:46:56;21.60;84.30
1958;DHT22;979;51.076;13.748;2022-09-14T09:49:35;21.70;84.00
1958;DHT22;979;51.076;13.748;2022-09-14T09:54:59;21.80;83.80
1958;DHT22;979;51.076;13.748;2022-09-14T09:57:29;21.90;83.60
1958;DHT22;979;51.076;13.748;2022-09-14T10:00:19;22.00;83.60
1958;DHT22;979;51.076;13.748;2022-09-14T10:02:47;22.00;83.50
1958;DHT22;979;51.076;13.748;2022-09-14T10:05:32;22.00;83.50
1958;DHT22;979;51.076;13.748;2022-09-14T10:08:02;22.10;83.50
1958;DHT22;979;51.076;13.748;2022-09-14T10:10:41;22.10;83.20
1958;DHT22;979;51.076;13.748;2022-09-14T10:13:21;21.90;83.30
1958;DHT22;979;51.076;13.748;2022-09-14T10:15:52;22.10;83.10
1958;DHT22;979;51.076;13.748;2022-09-14T10:18:21;22.10;83.40
1958;DHT22;979;51.076;13.748;2022-09-14T10:24:21;22.10;83.30
1958;DHT22;979;51.076;13.748;2022-09-14T10:27:08;22.10;83.80
1958;DHT22;979;51.076;13.748;2022-09-14T10:29:58;22.20;83.60
1958;DHT22;979;51.076;13.748;2022-09-14T10:32:38;22.20;83.30
1958;DHT22;979;51.076;13.748;2022-09-14T10:35:16;22.20;83.40
1958;DHT22;979;51.076;13.748;2022-09-14T10:38:00;22.10;83.30
1958;DHT22;979;51.076;13.748;2022-09-14T10:40:42;22.20;83.20
1958;DHT22;979;51.076;13.748;2022-09-14T10:43:26;22.10;83.00
1958;DHT22;979;51.076;13.748;2022-09-14T10:46:23;22.10;82.70
1958;DHT22;979;51.076;13.748;2022-09-14T10:49:24;22.00;82.80
1958;DHT22;979;51.076;13.748;2022-09-14T10:52:00;22.00;82.50
1958;DHT22;979;51.076;13.748;2022-09-14T10:58:28;21.80;82.80
1958;DHT22;979;51.076;13.748;2022-09-14T11:01:15;21.70;82.80
1958;DHT22;979;51.076;13.748;2022-09-14T11:04:07;21.70;83.10
1958;DHT22;979;51.076;13.748;2022-09-14T11:06:52;21.60;82.90
1958;DHT22;979;51.076;13.748;2022-09-14T11:09:28;21.60;83.00
1958;DHT22;979;51.076;13.748;2022-09-14T11:12:03;21.60;83.20
1958;DHT22;979;51.076;13.748;2022-09-14T11:14:56;21.60;83.50
1958;DHT22;979;51.076;13.748;2022-09-14T11:17:54;21.70;83.80
1958;DHT22;979;51.076;13.748;2022-09-14T11:20:42;21.60;83.80
1958;DHT22;979;51.076;13.748;2022-09-14T11:23:29;21.60;84.00
1958;DHT22;979;51.076;13.748;2022-09-14T11:26:24;21.60;84.60
1958;DHT22;979;51.076;13.748;2022-09-14T11:29:11;21.60;83.80
1958;DHT22;979;51.076;13.748;2022-09-14T11:31:48;21.60;83.80
1958;DHT22;979;51.076;13.748;2022-09-14T11:34:42;21.60;84.20
1958;DHT22;979;51.076;13.748;2022-09-14T11:37:24;21.70;83.90
1958;DHT22;979;51.076;13.748;2022-09-14T11:40:00;21.70;84.00
1958;DHT22;979;51.076;13.748;2022-09-14T11:42:33;21.70;84.00
1958;DHT22;979;51.076;13.748;2022-09-14T11:45:16;21.70;84.00
1958;DHT22;979;51.076;13.748;2022-09-14T11:48:12;21.70;83.90
1958;DHT22;979;51.076;13.748;2022-09-14T11:51:11;21.80;84.20
1958;DHT22;979;51.076;13.748;2022-09-14T11:53:43;21.80;84.30
1958;DHT22;979;51.076;13.748;2022-09-14T11:56:27;21.80;84.20
1958;DHT22;979;51.076;13.748;2022-09-14T11:58:58;21.80;85.00
1958;DHT22;979;51.076;13.748;2022-09-14T12:01:33;21.80;84.40
1958;DHT22;979;51.076;13.748;2022-09-14T12:04:11;21.80;84.00
1958;DHT22;979;51.076;13.748;2022-09-14T12:06:49;21.80;83.70
1958;DHT22;979;51.076;13.748;2022-09-14T12:09:41;21.80;83.80
1958;DHT22;979;51.076;13.748;2022-09-14T12:12:32;21.80;84.30
1958;DHT22;979;51.076;13.748;2022-09-14T12:15:03;21.80;84.20
1958;DHT22;979;51.076;13.748;2022-09-14T12:17:38;21.80;84.20
1958;DHT22;979;51.076;13.748;2022-09-14T12:23:24;21.80;84.40
1958;DHT22;979;51.076;13.748;2022-09-14T12:26:00;21.80;84.20
1958;DHT22;979;51.076;13.748;2022-09-14T12:28:41;21.90;84.40
1958;DHT22;979;51.076;13.748;2022-09-14T12:31:57;21.80;84.30
1958;DHT22;979;51.076;13.748;2022-09-14T12:34:29;21.80;84.30
1958;DHT22;979;51.076;13.748;2022-09-14T12:37:32;21.90;84.40
1958;DHT22;979;51.076;13.748;2022-09-14T12:40:33;21.90;84.30
1958;DHT22;979;51.076;13.748;2022-09-14T12:46:45;22.00;84.40
1958;DHT22;979;51.076;13.748;2022-09-14T12:49:33;22.10;85.40
1958;DHT22;979;51.076;13.748;2022-09-14T12:52:18;22.10;84.50
1958;DHT22;979;51.076;13.748;2022-09-14T12:55:01;22.00;84.80
1958;DHT22;979;51.076;13.748;2022-09-14T12:57:48;21.90;84.20
1958;DHT22;979;51.076;13.748;2022-09-14T13:00:20;22.00;84.40
1958;DHT22;979;51.076;13.748;2022-09-14T13:03:10;21.90;84.40
1958;DHT22;979;51.076;13.748;2022-09-14T13:05:45;21.90;84.50
1958;DHT22;979;51.076;13.748;2022-09-14T13:08:17;21.90;84.90
1958;DHT22;979;51.076;13.748;2022-09-14T13:11:05;21.90;84.90
1958;DHT22;979;51.076;13.748;2022-09-14T13:13:55;22.10;85.40
1958;DHT22;979;51.076;13.748;2022-09-14T13:16:38;22.10;85.30
1958;DHT22;979;51.076;13.748;2022-09-14T13:19:27;22.20;85.10
1958;DHT22;979;51.076;13.748;2022-09-14T13:22:01;22.30;84.90
1958;DHT22;979;51.076;13.748;2022-09-14T13:24:45;22.20;84.60
1958;DHT22;979;51.076;13.748;2022-09-14T13:27:29;22.20;84.70
1958;DHT22;979;51.076;13.748;2022-09-14T13:30:18;22.20;84.30
1958;DHT22;979;51.076;13.748;2022-09-14T13:32:53;22.10;84.00
1958;DHT22;979;51.076;13.748;2022-09-14T13:35:29;22.40;84.10
1958;DHT22;979;51.076;13.748;2022-09-14T13:38:07;22.10;83.80
1958;DHT22;979;51.076;13.748;2022-09-14T13:40:49;22.20;84.10
1958;DHT22;979;51.076;13.748;2022-09-14T13:43:29;22.20;84.10
1958;DHT22;979;51.076;13.748;2022-09-14T13:46:05;22.20;84.40
1958;DHT22;979;51.076;13.748;2022-09-14T13:48:50;22.20;84.40
1958;DHT22;979;51.076;13.748;2022-09-14T13:51:26;22.20;84.30
1958;DHT22;979;51.076;13.748;2022-09-14T13:54:33;22.20;84.50
1958;DHT22;979;51.076;13.748;2022-09-14T13:57:40;22.40;85.00
1958;DHT22;979;51.076;13.748;2022-09-14T14:01:01;22.10;84.30
1958;DHT22;979;51.076;13.748;2022-09-14T14:03:55;22.10;84.40
1958;DHT22;979;51.076;13.748;2022-09-14T14:06:33;22.10;84.70
1958;DHT22;979;51.076;13.748;2022-09-14T14:09:18;22.10;84.50
1958;DHT22;979;51.076;13.748;2022-09-14T14:11:54;22.10;84.40
1958;DHT22;979;51.076;13.748;2022-09-14T14:14:37;22.00;84.80
1958;DHT22;979;51.076;13.748;2022-09-14T14:17:35;22.00;84.70
1958;DHT22;979;51.076;13.748;2022-09-14T14:20:37;22.00;84.40
1958;DHT22;979;51.076;13.748;2022-09-14T14:23:18;22.00;85.20
1958;DHT22;979;51.076;13.748;2022-09-14T14:26:06;21.90;84.60
1958;DHT22;979;51.076;13.748;2022-09-14T14:28:43;21.90;84.80
1958;DHT22;979;51.076;13.748;2022-09-14T14:31:26;21.80;84.70
1958;DHT22;979;51.076;13.748;2022-09-14T14:34:11;21.80;84.70
1958;DHT22;979;51.076;13.748;2022-09-14T14:36:55;21.70;85.10
1958;DHT22;979;51.076;13.748;2022-09-14T14:39:38;21.60;85.10
1958;DHT22;979;51.076;13.748;2022-09-14T14:42:19;21.60;85.60
1958;DHT22;979;51.076;13.748;2022-09-14T14:44:58;21.60;85.10
1958;DHT22;979;51.076;13.748;2022-09-14T14:47:39;21.50;85.50
1958;DHT22;979;51.076;13.748;2022-09-14T14:50:18;21.40;85.40
1958;DHT22;979;51.076;13.748;2022-09-14T14:52:56;21.20;85.30
1958;DHT22;979;51.076;13.748;2022-09-14T14:55:31;21.30;85.70
1958;DHT22;979;51.076;13.748;2022-09-14T14:58:02;21.30;86.20
1958;DHT22;979;51.076;13.748;2022-09-14T15:00:38;21.20;85.60
1958;DHT22;979;51.076;13.748;2022-09-14T15:03:31;21.30;86.10
1958;DHT22;979;51.076;13.748;2022-09-14T15:06:22;21.20;86.10
1958;DHT22;979;51.076;13.748;2022-09-14T15:08:58;21.20;85.50
1958;DHT22;979;51.076;13.748;2022-09-14T15:11:43;21.30;85.70
1958;DHT22;979;51.076;13.748;2022-09-14T15:14:19;21.20;85.90
1958;DHT22;979;51.076;13.748;2022-09-14T15:17:01;21.20;86.20
1958;DHT22;979;51.076;13.748;2022-09-14T15:19:47;21.00;86.30
1958;DHT22;979;51.076;13.748;2022-09-14T15:22:55;21.20;86.10
1958;DHT22;979;51.076;13.748;2022-09-14T15:25:26;21.30;86.00
1958;DHT22;979;51.076;13.748;2022-09-14T15:27:59;21.20;86.10
1958;DHT22;979;51.076;13.748;2022-09-14T15:30:30;21.20;86.10
1958;DHT22;979;51.076;13.748;2022-09-14T15:33:05;21.30;86.70
1958;DHT22;979;51.076;13.748;2022-09-14T15:35:53;21.30;86.30
1958;DHT22;979;51.076;13.748;2022-09-14T15:38:33;21.30;86.10
1958;DHT22;979;51.076;13.748;2022-09-14T15:41:12;21.30;86.20
1958;DHT22;979;51.076;13.748;2022-09-14T15:43:54;21.30;86.70
1958;DHT22;979;51.076;13.748;2022-09-14T15:46:25;21.30;86.40
1958;DHT22;979;51.076;13.748;2022-09-14T15:48:57;21.30;86.50
1958;DHT22;979;51.076;13.748;2022-09-14T15:51:31;21.40;86.90
1958;DHT22;979;51.076;13.748;2022-09-14T15:54:21;21.30;86.80
1958;DHT22;979;51.076;13.748;2022-09-14T15:57:04;21.30;86.30
1958;DHT22;979;51.076;13.748;2022-09-14T15:59:37;21.30;86.60
1958;DHT22;979;51.076;13.748;2022-09-14T16:02:13;21.20;87.00
1958;DHT22;979;51.076;13.748;2022-09-14T16:04:52;21.30;86.80
1958;DHT22;979;51.076;13.748;2022-09-14T16:07:27;21.20;87.10
1958;DHT22;979;51.076;13.748;2022-09-14T16:10:02;21.10;86.50
1958;DHT22;979;51.076;13.748;2022-09-14T16:12:33;21.20;86.90
1958;DHT22;979;51.076;13.748;2022-09-14T16:15:13;21.10;87.10
1958;DHT22;979;51.076;13.748;2022-09-14T16:18:01;21.00;86.90
1958;DHT22;979;51.076;13.748;2022-09-14T16:20:40;21.00;87.30
1958;DHT22;979;51.076;13.748;2022-09-14T16:23:18;20.90;87.50
1958;DHT22;979;51.076;13.748;2022-09-14T16:25:52;20.90;87.50
1958;DHT22;979;51.076;13.748;2022-09-14T16:28:44;20.80;88.00
1958;DHT22;979;51.076;13.748;2022-09-14T16:31:19;20.70;88.10
1958;DHT22;979;51.076;13.748;2022-09-14T16:34:05;20.60;88.20
1958;DHT22;979;51.076;13.748;2022-09-14T16:36:44;20.60;88.60
1958;DHT22;979;51.076;13.748;2022-09-14T16:39:18;20.50;88.60
1958;DHT22;979;51.076;13.748;2022-09-14T16:42:00;20.40;88.80
1958;DHT22;979;51.076;13.748;2022-09-14T16:44:37;20.40;88.50
1958;DHT22;979;51.076;13.748;2022-09-14T16:47:14;20.30;89.00
1958;DHT22;979;51.076;13.748;2022-09-14T16:49:51;20.20;89.30
1958;DHT22;979;51.076;13.748;2022-09-14T16:52:24;20.20;89.20
1958;DHT22;979;51.076;13.748;2022-09-14T16:55:04;20.10;89.60
1958;DHT22;979;51.076;13.748;2022-09-14T16:57:47;20.10;89.50
1958;DHT22;979;51.076;13.748;2022-09-14T17:00:25;19.90;90.00
1958;DHT22;979;51.076;13.748;2022-09-14T17:02:54;20.00;89.80
1958;DHT22;979;51.076;13.748;2022-09-14T17:05:32;20.00;90.00
1958;DHT22;979;51.076;13.748;2022-09-14T17:08:06;19.90;90.00
1958;DHT22;979;51.076;13.748;2022-09-14T17:10:37;20.00;90.30
1958;DHT22;979;51.076;13.748;2022-09-14T17:13:11;19.90;90.30
1958;DHT22;979;51.076;13.748;2022-09-14T17:15:42;19.90;90.30
1958;DHT22;979;51.076;13.748;2022-09-14T17:18:10;19.80;90.40